Time;durP1;ratioP1;P1;durP2;ratioP2;P2;SDS_P1;SDS_P2;PMS_P1;PMS_P2;Temp;Humidity;BMP_temperature;BMP_pressure;BME280_temperature;BME280_humidity;BME280_pressure;Samples;Min_cycle;Max_cycle;Signal;HPM_P1;HPM_P2
2021/11/28 00:00:47;;;;;;;14.85;9.68;;;307.90;2304.00;;;;;;5098318;28;20407;-75
2021/11/28 00:03:15;;;;;;;14.75;9.88;;;307.80;2304.00;;;;;;5075664;28;20024;-75
2021/11/28 00:05:42;;;;;;;13.05;9.40;;;307.80;2304.00;;;;;;5077602;28;20111;-75
2021/11/28 00:16:00;;;;;;;38.00;24.02;;;307.50;2304.00;;;;;;5093738;28;20030;-76
2021/11/28 00:18:27;;;;;;;20.23;13.48;;;307.40;2304.00;;;;;;5075896;28;20032;-76
2021/11/28 00:20:53;;;;;;;22.30;15.18;;;307.30;2304.00;;;;;;5093332;28;20082;-75
2021/11/28 00:23:19;;;;;;;21.63;14.43;;;307.30;2304.00;;;;;;5075887;28;20032;-76
2021/11/28 00:25:45;;;;;;;18.25;13.30;;;307.40;2304.00;;;;;;5091831;28;20044;-76
2021/11/28 00:28:13;;;;;;;18.65;13.00;;;307.40;2304.00;;;;;;5062234;28;20055;-75
2021/11/28 00:30:40;;;;;;;18.55;12.80;;;307.40;2304.00;;;;;;5093549;28;20020;-76
2021/11/28 00:33:06;;;;;;;18.48;12.38;;;307.40;2304.00;;;;;;5094195;28;20028;-75
2021/11/28 00:35:33;;;;;;;20.70;12.38;;;307.40;2304.00;;;;;;5093689;28;20020;-75
2021/11/28 00:37:59;;;;;;;23.83;14.48;;;307.40;2304.00;;;;;;5093290;28;20034;-76
2021/11/28 00:40:24;;;;;;;24.23;16.55;;;307.50;2304.00;;;;;;5074792;28;20110;-76
2021/11/28 00:42:51;;;;;;;25.95;16.00;;;307.40;2304.00;;;;;;5074520;28;20027;-76
2021/11/28 00:45:17;;;;;;;27.08;17.25;;;307.40;2304.00;;;;;;5082500;28;20032;-75
2021/11/28 00:47:43;;;;;;;29.15;19.20;;;307.40;2304.00;;;;;;5092114;28;20116;-75
2021/11/28 00:52:36;;;;;;;27.80;16.52;;;307.30;2304.00;;;;;;5086364;28;20056;-75
2021/11/28 00:55:04;;;;;;;25.70;16.08;;;307.30;2304.00;;;;;;5074374;28;20036;-76
2021/11/28 00:57:29;;;;;;;26.15;18.02;;;307.30;2304.00;;;;;;5089017;28;20536;-76
2021/11/28 00:59:56;;;;;;;30.67;18.83;;;307.30;2304.00;;;;;;5092921;28;20325;-75
2021/11/28 01:02:22;;;;;;;27.25;16.20;;;307.30;2304.00;;;;;;5085575;28;20020;-75
2021/11/28 01:04:48;;;;;;;28.98;18.17;;;307.20;2304.00;;;;;;5089104;28;20055;-75
2021/11/28 01:07:14;;;;;;;25.35;16.90;;;307.20;2304.00;;;;;;5092341;28;20388;-75
2021/11/28 01:09:40;;;;;;;26.15;17.38;;;307.20;2304.00;;;;;;5075067;28;20027;-75
2021/11/28 01:12:07;;;;;;;26.30;16.38;;;307.30;2304.00;;;;;;5071674;28;20039;-76
2021/11/28 01:14:33;;;;;;;21.20;14.50;;;307.20;2304.00;;;;;;5092872;28;20032;-76
2021/11/28 01:17:01;;;;;;;19.20;13.25;;;307.20;2304.00;;;;;;5071711;28;20031;-75
2021/11/28 01:19:26;;;;;;;22.63;15.15;;;307.20;2304.00;;;;;;5072675;28;20031;-76
2021/11/28 01:22:05;;;;;;;22.38;14.38;;;307.20;2304.00;;;;;;5054809;28;20028;-75
2021/11/28 01:24:30;;;;;;;21.25;14.13;;;307.20;2304.00;;;;;;5077427;28;20036;-75
2021/11/28 01:26:57;;;;;;;21.27;15.02;;;307.20;2304.00;;;;;;5091544;28;20394;-75
2021/11/28 01:29:24;;;;;;;22.83;14.85;;;307.20;2304.00;;;;;;5092330;28;20073;-75
2021/11/28 01:31:49;;;;;;;19.92;13.40;;;307.20;2304.00;;;;;;5074534;28;20056;-77
2021/11/28 01:34:15;;;;;;;19.33;14.88;;;307.20;2304.00;;;;;;5091570;28;20060;-76
2021/11/28 01:36:42;;;;;;;27.88;19.77;;;307.20;2304.00;;;;;;5092152;28;20031;-76
2021/11/28 01:39:09;;;;;;;28.42;21.08;;;282.50;2278.40;;;;;;5089593;28;20501;-75
2021/11/28 01:41:36;;;;;;;24.27;17.95;;;282.40;2278.40;;;;;;5091987;28;20429;-75
2021/11/28 01:44:02;;;;;;;24.13;16.10;;;282.40;2278.40;;;;;;5073974;28;20434;-75
2021/11/28 01:46:28;;;;;;;27.60;16.58;;;282.30;2278.40;;;;;;5092549;28;20024;-75
2021/11/28 01:48:55;;;;;;;25.17;14.95;;;282.30;2278.40;;;;;;5091947;28;20475;-75
2021/11/28 01:51:21;;;;;;;24.90;16.00;;;282.30;2278.40;;;;;;5092346;28;20063;-75
2021/11/28 01:53:50;;;;;;;20.65;14.70;;;282.30;2278.40;;;;;;5088499;28;20529;-75
2021/11/28 01:56:16;;;;;;;25.90;16.45;;;282.30;2278.40;;;;;;5092040;28;20039;-75
2021/11/28 01:58:42;;;;;;;24.08;16.20;;;282.20;2278.40;;;;;;5073742;28;20387;-75
2021/11/28 02:01:16;;;;;;;22.63;14.65;;;282.20;2278.40;;;;;;5092191;28;20060;-75
2021/11/28 02:03:43;;;;;;;25.63;14.88;;;282.20;2278.40;;;;;;5073741;28;20047;-75
2021/11/28 02:06:12;;;;;;;21.80;15.00;;;282.30;2278.40;;;;;;5091602;28;20064;-75
2021/11/28 02:08:39;;;;;;;20.77;14.93;;;282.20;2278.40;;;;;;5083977;28;20028;-75
2021/11/28 02:11:05;;;;;;;23.40;15.98;;;282.20;2278.40;;;;;;5071986;28;20028;-75
2021/11/28 02:13:32;;;;;;;28.20;17.45;;;282.20;2278.40;;;;;;5054183;28;20039;-75
2021/11/28 02:15:58;;;;;;;19.48;15.57;;;282.30;2278.40;;;;;;5071883;28;20024;-75
2021/11/28 02:18:26;;;;;;;22.90;15.52;;;282.20;2278.40;;;;;;5062540;28;20493;-75
2021/11/28 02:20:57;;;;;;;19.73;13.20;;;282.30;2278.40;;;;;;5073897;28;20421;-75
2021/11/28 02:23:23;;;;;;;18.10;13.88;;;282.30;2278.40;;;;;;5083532;28;20033;-75
2021/11/28 02:25:50;;;;;;;17.60;13.68;;;282.40;2278.40;;;;;;5076187;28;20027;-75
2021/11/28 02:28:17;;;;;;;26.38;17.42;;;282.30;2278.40;;;;;;5103280;28;20049;-74
2021/11/28 02:30:42;;;;;;;25.83;18.48;;;282.30;2278.40;;;;;;5094090;28;20070;-75
2021/11/28 02:33:08;;;;;;;29.38;18.77;;;282.30;2278.40;;;;;;5073891;28;20364;-75
2021/11/28 02:35:34;;;;;;;27.85;18.90;;;282.20;2278.40;;;;;;5077233;28;20123;-75
2021/11/28 02:38:07;;;;;;;24.52;15.02;;;282.20;2278.40;;;;;;5096049;28;20463;-75
2021/11/28 02:40:34;;;;;;;21.20;15.23;;;282.20;2278.40;;;;;;5096356;28;20103;-76
2021/11/28 02:43:01;;;;;;;29.08;16.48;;;282.20;2278.40;;;;;;5093320;28;20020;-75
2021/11/28 02:45:28;;;;;;;26.38;16.65;;;282.10;2278.40;;;;;;5057573;28;20033;-75
2021/11/28 02:47:57;;;;;;;27.02;17.40;;;282.10;2278.40;;;;;;5074394;28;20028;-76
2021/11/28 02:50:23;;;;;;;26.50;18.90;;;282.10;2278.40;;;;;;5075538;28;20028;-76
2021/11/28 02:52:55;;;;;;;23.98;16.30;;;282.00;2278.40;;;;;;5077397;28;20395;-75
2021/11/28 02:55:23;;;;;;;33.35;21.17;;;282.00;2278.40;;;;;;5095654;28;20382;-76
2021/11/28 02:57:49;;;;;;;35.20;22.23;;;282.00;2278.40;;;;;;5095925;28;20390;-76
2021/11/28 03:00:15;;;;;;;34.80;22.58;;;282.00;2278.40;;;;;;5095674;28;20040;-75
2021/11/28 03:02:41;;;;;;;30.70;19.63;;;282.00;2278.40;;;;;;5076922;28;20044;-76
2021/11/28 03:05:07;;;;;;;25.83;17.73;;;282.10;2278.40;;;;;;5095262;28;20030;-75
2021/11/28 03:07:33;;;;;;;27.65;18.13;;;282.10;2278.40;;;;;;5095685;28;20024;-76
2021/11/28 03:09:59;;;;;;;35.55;22.63;;;282.20;2278.40;;;;;;5095483;28;20024;-75
2021/11/28 03:12:24;;;;;;;37.72;21.95;;;282.10;2278.40;;;;;;5094159;28;20074;-75
2021/11/28 03:14:50;;;;;;;37.47;21.42;;;282.10;2278.40;;;;;;5077549;28;20064;-75
2021/11/28 03:17:16;;;;;;;31.27;21.48;;;282.10;2278.40;;;;;;5076919;28;20028;-76
2021/11/28 03:19:42;;;;;;;40.97;28.35;;;282.00;2278.40;;;;;;5077416;28;20058;-75
2021/11/28 03:22:08;;;;;;;42.72;25.45;;;281.90;2278.40;;;;;;5076982;28;20032;-75
2021/11/28 03:24:34;;;;;;;36.65;22.92;;;281.70;2278.40;;;;;;5076613;28;20506;-76
2021/11/28 03:26:59;;;;;;;31.77;22.38;;;281.80;2278.40;;;;;;5074739;28;20052;-76
2021/11/28 03:29:27;;;;;;;26.27;18.80;;;281.70;2278.40;;;;;;5074201;28;20039;-75
2021/11/28 03:31:55;;;;;;;25.00;17.02;;;281.70;2278.40;;;;;;5074552;28;20535;-76
2021/11/28 03:34:21;;;;;;;21.35;15.25;;;281.70;2278.40;;;;;;5074541;28;20024;-75
2021/11/28 03:36:51;;;;;;;22.55;16.60;;;281.60;2278.40;;;;;;5090993;28;20062;-75
2021/11/28 03:39:20;;;;;;;21.15;14.52;;;256.90;2252.80;;;;;;5093584;28;20399;-75
2021/11/28 03:41:49;;;;;;;29.30;17.77;;;256.70;2252.80;;;;;;5076924;28;20475;-74
2021/11/28 03:44:15;;;;;;;23.98;16.63;;;256.60;2252.80;;;;;;5076446;28;20028;-75
2021/11/28 03:46:40;;;;;;;22.90;16.08;;;256.50;2252.80;;;;;;5077055;28;20031;-76
2021/11/28 03:49:06;;;;;;;23.90;17.08;;;256.40;2252.80;;;;;;5094606;28;20483;-76
2021/11/28 03:51:32;;;;;;;28.17;18.90;;;256.30;2252.80;;;;;;5079452;28;20100;-75
2021/11/28 03:53:59;;;;;;;30.00;18.70;;;256.20;2252.80;;;;;;5056606;28;20033;-75
2021/11/28 03:56:25;;;;;;;32.83;22.25;;;256.10;2252.80;;;;;;5074453;28;20017;-76
2021/11/28 03:58:51;;;;;;;32.60;21.20;;;256.10;2252.80;;;;;;5056772;28;20021;-76
2021/11/28 04:01:19;;;;;;;28.10;21.52;;;256.00;2252.80;;;;;;5073984;28;20028;-75
2021/11/28 04:03:45;;;;;;;33.33;22.83;;;256.00;2252.80;;;;;;5074621;28;20074;-75
2021/11/28 04:06:12;;;;;;;30.92;22.85;;;231.30;2252.80;;;;;;5081452;28;20441;-76
2021/11/28 04:08:38;;;;;;;30.65;22.00;;;231.30;2252.80;;;;;;5076420;28;20034;-75
2021/11/28 04:11:04;;;;;;;30.55;22.33;;;231.20;2252.80;;;;;;5094309;28;20095;-75
2021/11/28 04:13:30;;;;;;;34.03;23.70;;;231.20;2252.80;;;;;;5075964;28;20135;-75
2021/11/28 04:15:56;;;;;;;35.42;24.63;;;231.20;2252.80;;;;;;5056093;28;20028;-75
2021/11/28 04:18:22;;;;;;;36.83;25.92;;;231.10;2252.80;;;;;;5073909;28;20070;-75
2021/11/28 04:20:49;;;;;;;42.65;28.52;;;231.10;2252.80;;;;;;5074304;28;20071;-75
2021/11/28 04:23:16;;;;;;;35.72;25.45;;;231.20;2252.80;;;;;;5064199;28;20035;-75
2021/11/28 04:25:42;;;;;;;36.05;28.45;;;231.10;2252.80;;;;;;5094360;28;20490;-76
2021/11/28 04:28:08;;;;;;;36.90;27.00;;;231.10;2252.80;;;;;;5075725;28;20414;-75
2021/11/28 04:30:34;;;;;;;45.63;30.80;;;231.00;2252.80;;;;;;5094049;28;20075;-75
2021/11/28 04:33:00;;;;;;;35.25;27.05;;;231.10;2252.80;;;;;;5093614;28;20029;-76
2021/11/28 04:35:26;;;;;;;35.25;24.52;;;230.90;2252.80;;;;;;5076520;28;20020;-75
2021/11/28 04:37:52;;;;;;;37.85;25.13;;;230.90;2252.80;;;;;;5073614;28;20024;-75
2021/11/28 04:40:18;;;;;;;38.15;24.98;;;230.90;2252.80;;;;;;5090883;28;20806;-75
2021/11/28 04:42:44;;;;;;;36.08;27.63;;;231.00;2252.80;;;;;;5075043;28;20036;-76
2021/11/28 04:45:11;;;;;;;52.80;38.53;;;230.90;2252.80;;;;;;5072738;28;20036;-75
2021/11/28 04:47:37;;;;;;;46.13;34.97;;;230.80;2252.80;;;;;;5055077;28;20463;-75
2021/11/28 04:50:05;;;;;;;46.33;29.75;;;230.90;2252.80;;;;;;5079970;28;20399;-75
2021/11/28 04:52:31;;;;;;;37.67;27.75;;;230.90;2252.80;;;;;;5075211;28;20029;-76
2021/11/28 04:54:57;;;;;;;43.22;30.48;;;230.80;2252.80;;;;;;5093391;28;20028;-75
2021/11/28 04:57:23;;;;;;;40.70;28.80;;;230.90;2252.80;;;;;;5092846;28;20467;-76
2021/11/28 04:59:49;;;;;;;46.65;28.88;;;230.80;2252.80;;;;;;5073554;28;20040;-76
2021/11/28 05:02:15;;;;;;;49.22;32.63;;;230.80;2252.80;;;;;;5092352;28;20024;-75
2021/11/28 05:04:41;;;;;;;48.53;31.20;;;230.80;2252.80;;;;;;5075024;28;20051;-75
2021/11/28 05:07:07;;;;;;;49.25;33.20;;;230.80;2252.80;;;;;;5074577;28;20399;-76
2021/11/28 05:09:32;;;;;;;45.97;31.50;;;230.70;2252.80;;;;;;5092969;28;20036;-76
2021/11/28 05:11:58;;;;;;;47.05;32.70;;;230.70;2252.80;;;;;;5091817;28;20067;-75
2021/11/28 05:14:24;;;;;;;46.55;31.63;;;230.70;2252.80;;;;;;5075192;28;20039;-76
2021/11/28 05:16:50;;;;;;;49.08;30.25;;;230.70;2252.80;;;;;;5074420;28;20032;-75
2021/11/28 05:19:17;;;;;;;45.83;32.22;;;230.70;2252.80;;;;;;5087623;28;20439;-75
2021/11/28 05:21:44;;;;;;;54.42;34.35;;;230.70;2252.80;;;;;;5083021;28;20035;-75
2021/11/28 05:24:10;;;;;;;52.88;37.13;;;230.60;2252.80;;;;;;5074321;28;20040;-75
2021/11/28 05:26:36;;;;;;;57.70;37.17;;;230.40;2252.80;;;;;;5073701;28;20494;-75
2021/11/28 05:29:03;;;;;;;53.25;36.33;;;230.40;2252.80;;;;;;5085461;28;20023;-75
2021/11/28 05:31:29;;;;;;;53.78;37.20;;;205.70;2252.80;;;;;;5074422;28;20055;-75
2021/11/28 05:33:55;;;;;;;56.05;35.15;;;205.70;2252.80;;;;;;5073386;28;20058;-75
2021/11/28 05:36:21;;;;;;;52.85;35.17;;;205.70;2252.80;;;;;;5074439;28;20024;-75
2021/11/28 05:38:47;;;;;;;53.45;35.67;;;205.70;2252.80;;;;;;5074038;28;20016;-75
2021/11/28 05:41:15;;;;;;;53.38;36.55;;;205.60;2252.80;;;;;;5074340;28;20107;-75
2021/11/28 05:43:43;;;;;;;57.30;37.60;;;205.70;2252.80;;;;;;5088786;28;20028;-75
2021/11/28 05:46:10;;;;;;;58.63;37.03;;;205.60;2252.80;;;;;;5089541;28;20519;-75
2021/11/28 05:48:36;;;;;;;55.92;36.75;;;205.50;2252.80;;;;;;5091999;28;20041;-75
2021/11/28 05:51:03;;;;;;;52.58;36.35;;;205.50;2252.80;;;;;;5074298;28;20039;-75
2021/11/28 05:53:30;;;;;;;51.13;36.63;;;205.50;2252.80;;;;;;5074228;28;20032;-75
2021/11/28 05:55:55;;;;;;;55.42;36.80;;;205.50;2252.80;;;;;;5074422;28;20037;-75
2021/11/28 05:58:21;;;;;;;53.67;36.90;;;205.40;2252.80;;;;;;5090946;28;20020;-75
2021/11/28 06:00:47;;;;;;;66.63;41.60;;;205.40;2252.80;;;;;;5092278;28;20894;-75
2021/11/28 06:03:13;;;;;;;78.25;47.72;;;205.40;2252.80;;;;;;5092134;28;20114;-76
2021/11/28 06:05:41;;;;;;;73.45;46.00;;;205.40;2252.80;;;;;;5073884;28;20103;-75
2021/11/28 06:08:07;;;;;;;65.15;43.97;;;205.40;2252.80;;;;;;5091693;28;20158;-76
2021/11/28 06:10:33;;;;;;;70.90;46.10;;;205.40;2252.80;;;;;;5074075;28;20068;-75
2021/11/28 06:12:59;;;;;;;75.32;46.50;;;205.30;2252.80;;;;;;5073454;28;20042;-75
2021/11/28 06:15:24;;;;;;;69.45;44.97;;;205.30;2252.80;;;;;;5090985;28;20101;-76
2021/11/28 06:17:50;;;;;;;72.88;46.88;;;205.20;2252.80;;;;;;5092189;28;20028;-75
2021/11/28 06:20:16;;;;;;;65.38;43.35;;;205.30;2252.80;;;;;;5091969;28;20028;-76
2021/11/28 06:22:42;;;;;;;67.45;45.40;;;205.30;2252.80;;;;;;5074167;28;20059;-75
2021/11/28 06:25:08;;;;;;;76.15;50.08;;;205.40;2252.80;;;;;;5089827;28;20085;-75
2021/11/28 06:27:34;;;;;;;96.32;64.97;;;205.40;2252.80;;;;;;5091339;28;20038;-75
2021/11/28 06:30:01;;;;;;;182.15;114.03;;;205.30;2252.80;;;;;;5073694;28;20475;-76
2021/11/28 06:32:27;;;;;;;131.07;86.28;;;205.40;2252.80;;;;;;5091894;28;20020;-75
2021/11/28 06:34:53;;;;;;;122.15;83.47;;;205.40;2252.80;;;;;;5091010;28;20024;-75
2021/11/28 06:37:19;;;;;;;111.03;82.25;;;205.40;2252.80;;;;;;5087883;28;20017;-75
2021/11/28 06:39:44;;;;;;;130.38;93.72;;;205.40;2252.80;;;;;;5057751;28;20028;-76
2021/11/28 06:42:19;;;;;;;147.55;101.07;;;205.50;2252.80;;;;;;5071405;28;20084;-75
2021/11/28 06:44:47;;;;;;;133.00;85.72;;;205.50;2252.80;;;;;;5070619;28;20028;-75
2021/11/28 06:47:13;;;;;;;122.18;82.47;;;205.50;2252.80;;;;;;5073531;28;20475;-75
2021/11/28 06:50:01;;;;;;;131.68;81.22;;;205.60;2252.80;;;;;;5091102;28;20059;-75
2021/11/28 06:52:27;;;;;;;135.98;83.15;;;205.70;2252.80;;;;;;5067879;28;20055;-76
2021/11/28 06:55:07;;;;;;;133.60;80.65;;;205.70;2252.80;;;;;;5075153;28;20498;-76
2021/11/28 06:57:34;;;;;;;138.45;85.35;;;230.40;2252.80;;;;;;5069451;28;20454;-76
2021/11/28 07:00:00;;;;;;;135.82;81.20;;;230.50;2252.80;;;;;;5072673;28;20043;-75
2021/11/28 07:02:26;;;;;;;126.25;85.45;;;230.50;2252.80;;;;;;5091106;28;20391;-75
2021/11/28 07:04:52;;;;;;;120.43;82.32;;;230.60;2252.80;;;;;;5092042;28;20028;-76
2021/11/28 07:07:18;;;;;;;112.80;80.40;;;230.60;2252.80;;;;;;5058700;28;20079;-75
2021/11/28 07:09:44;;;;;;;103.10;72.53;;;230.60;2252.80;;;;;;5086634;28;20788;-76
2021/11/28 07:12:10;;;;;;;108.15;72.00;;;230.70;2252.80;;;;;;5071271;28;20074;-75
2021/11/28 07:14:36;;;;;;;102.47;66.28;;;230.80;2252.80;;;;;;5053765;28;20039;-76
2021/11/28 07:17:02;;;;;;;99.80;63.60;;;230.90;2252.80;;;;;;5069340;28;20020;-76
2021/11/28 07:19:27;;;;;;;112.50;71.82;;;230.90;2252.80;;;;;;5074633;28;20043;-75
2021/11/28 07:21:54;;;;;;;125.47;76.43;;;231.00;2252.80;;;;;;5076819;28;20048;-75
2021/11/28 07:24:21;;;;;;;108.43;65.97;;;231.00;2252.80;;;;;;5092827;28;20028;-75
2021/11/28 07:26:47;;;;;;;98.13;62.22;;;231.00;2252.80;;;;;;5077239;28;20039;-75
2021/11/28 07:29:12;;;;;;;94.43;63.83;;;231.10;2252.80;;;;;;5076859;28;20028;-75
2021/11/28 07:31:38;;;;;;;89.40;58.95;;;231.20;2252.80;;;;;;5094179;28;20081;-75
2021/11/28 07:34:04;;;;;;;92.10;57.03;;;231.20;2252.80;;;;;;5094788;28;20059;-76
2021/11/28 07:36:30;;;;;;;81.85;52.00;;;231.30;2252.80;;;;;;5095264;28;20427;-75
2021/11/28 07:38:55;;;;;;;83.80;55.15;;;231.30;2252.80;;;;;;5097884;28;20103;-75
2021/11/28 07:41:21;;;;;;;75.85;50.28;;;231.30;2252.80;;;;;;5104068;28;20394;-75
2021/11/28 07:43:47;;;;;;;62.92;41.47;;;256.10;2252.80;;;;;;5114280;28;20050;-76
2021/11/28 07:46:13;;;;;;;58.13;41.92;;;256.10;2252.80;;;;;;5095391;28;20047;-76
2021/11/28 07:48:39;;;;;;;64.93;43.45;;;256.20;2252.80;;;;;;5096166;28;20024;-75
2021/11/28 07:51:05;;;;;;;53.58;38.45;;;256.20;2252.80;;;;;;5087463;28;20387;-76
2021/11/28 07:53:30;;;;;;;55.75;38.83;;;256.30;2252.80;;;;;;5076194;28;20028;-75
2021/11/28 07:55:56;;;;;;;50.00;35.80;;;256.40;2252.80;;;;;;5093081;28;20677;-75
2021/11/28 07:58:22;;;;;;;46.50;32.72;;;256.50;2252.80;;;;;;5076641;28;20024;-74
2021/11/28 08:00:48;;;;;;;47.75;32.85;;;256.60;2252.80;;;;;;5094116;28;20044;-74
2021/11/28 08:03:15;;;;;;;51.42;35.80;;;256.80;2252.80;;;;;;5094485;28;20028;-74
2021/11/28 08:05:40;;;;;;;44.13;31.55;;;256.90;2252.80;;;;;;5076096;28;20032;-74
2021/11/28 08:08:06;;;;;;;47.05;31.65;;;281.70;2278.40;;;;;;5094429;28;20031;-73
2021/11/28 08:10:32;;;;;;;40.03;28.33;;;281.90;2278.40;;;;;;5094032;28;20056;-74
2021/11/28 08:12:58;;;;;;;45.20;28.55;;;282.10;2278.40;;;;;;5094223;28;20414;-75
2021/11/28 08:15:24;;;;;;;41.92;27.42;;;282.20;2278.40;;;;;;5093929;28;20036;-75
2021/11/28 08:17:50;;;;;;;44.88;29.10;;;282.40;2278.40;;;;;;5093388;28;20024;-76
2021/11/28 08:20:17;;;;;;;37.45;27.52;;;282.50;2278.40;;;;;;5094464;28;20429;-75
2021/11/28 08:22:44;;;;;;;34.75;26.30;;;307.40;2304.00;;;;;;5093591;28;20386;-75
2021/11/28 08:25:13;;;;;;;39.45;25.50;;;307.40;2304.00;;;;;;5075377;28;20028;-75
2021/11/28 08:27:40;;;;;;;31.13;22.40;;;307.70;2304.00;;;;;;5055504;28;20020;-75
2021/11/28 08:30:13;;;;;;;30.58;21.17;;;307.90;2304.00;;;;;;5055117;28;20399;-74
2021/11/28 08:32:39;;;;;;;29.20;19.73;;;332.80;2329.60;;;;;;5055182;28;20025;-75
2021/11/28 08:35:07;;;;;;;28.90;20.50;;;332.90;2329.60;;;;;;5078280;28;20024;-75
2021/11/28 08:37:33;;;;;;;32.30;22.35;;;333.00;2329.60;;;;;;5093776;28;20107;-75
2021/11/28 08:40:01;;;;;;;28.75;18.05;;;333.20;2329.60;;;;;;5092430;28;20035;-75
2021/11/28 08:42:31;;;;;;;28.23;17.73;;;333.40;2329.60;;;;;;5075298;28;20020;-75
2021/11/28 08:44:57;;;;;;;29.85;18.35;;;333.50;2329.60;;;;;;5076292;28;20788;-75
2021/11/28 08:47:22;;;;;;;23.50;15.23;;;333.70;2329.60;;;;;;5090625;28;20032;-75
2021/11/28 08:49:48;;;;;;;24.02;15.07;;;358.50;2329.60;;;;;;5074521;28;20035;-75
2021/11/28 08:52:14;;;;;;;23.65;13.68;;;358.70;2329.60;;;;;;5074988;28;20040;-75
2021/11/28 08:54:39;;;;;;;23.65;13.70;;;358.80;2329.60;;;;;;5074015;28;20028;-75
2021/11/28 08:57:05;;;;;;;27.55;15.90;;;358.90;2329.60;;;;;;5074493;28;20020;-75
2021/11/28 08:59:31;;;;;;;25.65;15.43;;;359.10;2329.60;;;;;;5085598;28;20374;-75
2021/11/28 09:01:58;;;;;;;25.45;13.68;;;359.30;2329.60;;;;;;5072295;28;20032;-75
2021/11/28 09:04:24;;;;;;;22.52;11.93;;;384.00;2329.60;;;;;;5073120;28;20622;-75
2021/11/28 09:06:50;;;;;;;23.00;11.70;;;384.10;2329.60;;;;;;5054355;28;20119;-75
2021/11/28 09:09:16;;;;;;;22.98;13.73;;;384.20;2329.60;;;;;;5055088;28;20281;-75
2021/11/28 09:11:42;;;;;;;16.73;10.85;;;384.30;2329.60;;;;;;5070984;28;20099;-75
2021/11/28 09:14:08;;;;;;;21.23;9.50;;;384.80;2329.60;;;;;;5053651;28;20032;-75
2021/11/28 09:16:34;;;;;;;13.25;8.55;;;409.90;2355.20;;;;;;5054119;28;20029;-74
2021/11/28 09:19:20;;;;;;;11.95;7.32;;;410.30;2355.20;;;;;;5069833;28;20025;-75
2021/11/28 09:21:47;;;;;;;12.45;8.52;;;410.50;2355.20;;;;;;5069614;28;20016;-75
2021/11/28 09:26:57;;;;;;;10.50;5.78;;;435.20;2355.20;;;;;;5071302;28;20043;-75
2021/11/28 09:29:23;;;;;;;10.65;7.80;;;435.20;2355.20;;;;;;5072206;28;20047;-75
2021/11/28 09:31:49;;;;;;;17.80;8.48;;;435.40;2355.20;;;;;;5054057;28;20468;-75
2021/11/28 09:34:17;;;;;;;11.90;7.60;;;435.60;2355.20;;;;;;5054306;28;20123;-76
2021/11/28 09:36:42;;;;;;;18.05;8.82;;;435.60;2355.20;;;;;;5053169;28;20148;-75
2021/11/28 09:39:08;;;;;;;12.70;7.82;;;435.80;2355.20;;;;;;5053863;28;20056;-74
2021/11/28 09:41:38;;;;;;;11.23;6.97;;;436.10;2355.20;;;;;;5054120;28;20028;-75
2021/11/28 09:44:09;;;;;;;10.40;5.18;;;460.80;2380.80;;;;;;5071880;28;20028;-75
2021/11/28 09:46:36;;;;;;;10.32;7.03;;;461.00;2380.80;;;;;;5055407;28;20021;-75
2021/11/28 09:49:06;;;;;;;11.25;6.80;;;436.10;2355.20;;;;;;5071938;28;20085;-75
2021/11/28 09:51:33;;;;;;;13.93;9.27;;;436.10;2355.20;;;;;;5069646;28;20483;-75
2021/11/28 09:54:03;;;;;;;12.30;7.32;;;460.90;2380.80;;;;;;5070686;28;20072;-75
2021/11/28 09:56:34;;;;;;;13.02;8.60;;;461.00;2380.80;;;;;;5070193;28;20433;-74
2021/11/28 09:59:03;;;;;;;11.00;7.10;;;461.10;2380.80;;;;;;5054591;28;20031;-75
2021/11/28 10:05:09;;;;;;;12.75;6.88;;;461.50;2380.80;;;;;;5088258;28;20027;-75
2021/11/28 10:07:39;;;;;;;12.65;7.95;;;461.70;2380.80;;;;;;5070807;28;20031;-75
2021/11/28 10:10:06;;;;;;;11.07;6.10;;;461.70;2380.80;;;;;;5091475;28;20089;-75
2021/11/28 10:12:35;;;;;;;12.70;7.85;;;486.50;2380.80;;;;;;5092115;28;20031;-74
2021/11/28 10:15:05;;;;;;;14.63;7.57;;;486.50;2380.80;;;;;;5073927;28;20469;-75
2021/11/28 10:17:33;;;;;;;11.95;7.45;;;486.90;2380.80;;;;;;5073627;28;20044;-75
2021/11/28 10:20:01;;;;;;;12.20;8.07;;;486.90;2380.80;;;;;;5090222;28;20105;-74
2021/11/28 10:22:28;;;;;;;15.50;8.57;;;486.60;2380.80;;;;;;5088812;28;20081;-75
2021/11/28 10:25:00;;;;;;;12.95;8.52;;;486.60;2380.80;;;;;;5090021;28;20024;-75
2021/11/28 10:27:38;;;;;;;11.10;7.47;;;486.60;2380.80;;;;;;5090905;28;20542;-75
2021/11/28 10:30:07;;;;;;;12.55;6.47;;;487.00;2380.80;;;;;;5089164;28;20036;-75
2021/11/28 10:32:33;;;;;;;8.50;5.82;;;487.10;2380.80;;;;;;5091480;28;20020;-75
2021/11/28 10:34:59;;;;;;;7.88;4.55;;;487.30;2380.80;;;;;;5089827;28;20105;-76
2021/11/28 10:37:25;;;;;;;7.57;5.22;;;512.00;2380.80;;;;;;5070931;28;20024;-75
2021/11/28 10:39:52;;;;;;;19.67;11.70;;;512.20;2380.80;;;;;;5091196;28;20095;-75
2021/11/28 10:42:18;;;;;;;8.85;5.07;;;512.70;2380.80;;;;;;5072360;28;20478;-75
2021/11/28 10:45:00;;;;;;;8.23;4.50;;;512.40;2380.80;;;;;;5082004;28;20028;-76
2021/11/28 10:47:43;;;;;;;8.02;4.55;;;512.70;2380.80;;;;;;5086933;28;20020;-75
2021/11/28 10:50:26;;;;;;;7.82;5.15;;;537.70;2406.40;;;;;;5082699;28;20064;-74
2021/11/28 10:53:04;;;;;;;8.80;4.25;;;538.00;2406.40;;;;;;5069477;28;20039;-75
2021/11/28 10:55:42;;;;;;;7.80;4.85;;;538.20;2406.40;;;;;;5054941;28;20055;-75
2021/11/28 10:58:14;;;;;;;7.97;4.07;;;563.30;2432.00;;;;;;5051165;28;20103;-74
2021/11/28 11:00:49;;;;;;;4.97;3.80;;;563.60;2432.00;;;;;;5049747;28;20024;-75
2021/11/28 11:03:26;;;;;;;7.47;3.50;;;563.50;2432.00;;;;;;5074365;28;20188;-75
2021/11/28 11:05:55;;;;;;;8.15;3.55;;;537.80;2406.40;;;;;;5069777;28;20031;-75
2021/11/28 11:08:27;;;;;;;5.80;3.67;;;512.60;2380.80;;;;;;5047579;28;20024;-76
2021/11/28 11:11:11;;;;;;;6.80;4.00;;;512.20;2380.80;;;;;;5073854;28;20025;-75
2021/11/28 11:13:57;;;;;;;6.45;4.28;;;487.10;2380.80;;;;;;5072275;28;20021;-75
2021/11/28 11:16:39;;;;;;;10.13;4.80;;;487.00;2380.80;;;;;;5057019;28;20116;-74
2021/11/28 11:19:32;;;;;;;6.97;4.32;;;486.90;2380.80;;;;;;5069675;28;20082;-74
2021/11/28 11:22:15;;;;;;;7.93;5.22;;;486.60;2380.80;;;;;;5074506;28;20021;-74
2021/11/28 11:24:49;;;;;;;7.03;4.80;;;486.60;2380.80;;;;;;5054519;28;20028;-75
2021/11/28 11:27:27;;;;;;;5.28;3.47;;;486.70;2380.80;;;;;;5056722;28;20032;-74
2021/11/28 11:30:00;;;;;;;4.80;2.75;;;487.00;2380.80;;;;;;5074005;28;20017;-75
2021/11/28 11:32:45;;;;;;;6.35;3.60;;;487.20;2380.80;;;;;;5055473;28;20443;-75
2021/11/28 11:35:25;;;;;;;5.15;4.05;;;487.30;2380.80;;;;;;5073532;28;20495;-74
2021/11/28 11:37:53;;;;;;;8.73;4.78;;;487.10;2380.80;;;;;;5054660;28;20083;-75
2021/11/28 11:40:21;;;;;;;18.45;9.77;;;486.90;2380.80;;;;;;5072358;28;20031;-75
2021/11/28 11:42:49;;;;;;;16.75;8.70;;;486.60;2380.80;;;;;;5055786;28;20033;-75
2021/11/28 11:45:18;;;;;;;8.63;4.05;;;486.40;2380.80;;;;;;5074583;28;20051;-74
2021/11/28 11:47:45;;;;;;;10.38;4.70;;;461.50;2380.80;;;;;;5054223;28;20503;-75
2021/11/28 11:50:14;;;;;;;8.30;5.15;;;461.30;2380.80;;;;;;5069787;28;20515;-75
2021/11/28 11:52:40;;;;;;;7.32;4.38;;;461.30;2380.80;;;;;;5055074;28;20495;-75
2021/11/28 11:55:15;;;;;;;6.50;3.70;;;461.10;2380.80;;;;;;5073731;28;20052;-75
2021/11/28 11:58:32;;;;;;;13.70;4.55;;;461.00;2380.80;;;;;;5073218;28;20489;-76
2021/11/28 12:01:09;;;;;;;8.75;5.70;;;460.90;2380.80;;;;;;5012284;28;20046;-77
2021/11/28 12:03:50;;;;;;;8.52;4.55;;;460.80;2380.80;;;;;;5012482;28;20069;-76
2021/11/28 12:06:17;;;;;;;8.00;5.32;;;436.10;2355.20;;;;;;4994576;28;20249;-76
2021/11/28 12:08:53;;;;;;;8.65;4.70;;;436.00;2355.20;;;;;;4995970;28;20026;-77
2021/11/28 12:11:22;;;;;;;9.23;5.32;;;435.90;2355.20;;;;;;4995819;28;20044;-77
2021/11/28 12:13:49;;;;;;;11.20;5.97;;;435.90;2355.20;;;;;;4988210;28;20022;-76
2021/11/28 12:16:18;;;;;;;13.93;8.88;;;435.70;2355.20;;;;;;4977034;28;20034;-77
2021/11/28 12:18:49;;;;;;;16.52;9.07;;;435.70;2355.20;;;;;;5001889;28;20054;-76
2021/11/28 12:21:18;;;;;;;17.45;9.43;;;435.70;2355.20;;;;;;5012876;28;20029;-76